createdAt,value
2018-12-03T00:07:18.588Z,12.3
2018-12-03T00:17:32.398Z,12.2
2018-12-03T00:27:46.722Z,12.3
2018-12-03T00:38:00.425Z,12.3
2018-12-03T00:48:14.817Z,12.3
2018-12-03T00:58:29.094Z,12.3
2018-12-03T01:09:15.847Z,12.4
2018-12-03T01:20:01.503Z,12.4
2018-12-03T01:30:49.819Z,12.4
2018-12-03T01:41:34.941Z,12.5
2018-12-03T01:51:50.052Z,12.5
2018-12-03T02:02:03.616Z,12.5
2018-12-03T02:12:58.264Z,12.5
2018-12-03T02:23:44.828Z,12.5
2018-12-03T02:33:58.696Z,12.5
2018-12-03T02:44:10.866Z,12.5
2018-12-03T02:54:56.298Z,12.6
2018-12-03T03:05:42.167Z,12.6
2018-12-03T03:16:46.338Z,12.5
2018-12-03T03:27:00.239Z,12.6
2018-12-03T03:37:14.276Z,12.5
2018-12-03T03:47:32.419Z,12.5
2018-12-03T03:57:57.115Z,12.5
2018-12-03T04:19:51.450Z,12.5
2018-12-03T04:42:18.939Z,12.5
2018-12-03T04:52:31.433Z,12.5
2018-12-03T05:02:45.778Z,12.4
2018-12-03T05:12:57.715Z,12.4
2018-12-03T05:23:26.268Z,12.3
2018-12-03T05:33:39.960Z,12.2
2018-12-03T05:56:36.848Z,12.0
2018-12-03T06:07:36.112Z,11.9
2018-12-03T06:18:13.442Z,11.9
2018-12-03T06:29:00.649Z,11.7
2018-12-03T06:39:15.431Z,11.8
2018-12-03T06:50:04.682Z,11.6
2018-12-03T07:00:55.633Z,11.6
2018-12-03T07:11:07.940Z,11.5
2018-12-03T07:21:57.617Z,11.4
2018-12-03T07:32:12.359Z,11.4
2018-12-03T07:43:05.773Z,11.3
2018-12-03T07:53:56.511Z,11.3
2018-12-03T08:04:50.257Z,11.4
2018-12-03T08:15:38.175Z,11.4
2018-12-03T08:25:52.145Z,11.4
2018-12-03T08:36:03.387Z,11.4
2018-12-03T08:46:15.600Z,11.5
2018-12-03T08:57:38.012Z,11.5
2018-12-03T09:08:40.138Z,11.8
2018-12-03T09:18:54.441Z,11.7
2018-12-03T09:29:42.362Z,11.9
2018-12-03T09:39:56.427Z,11.9
2018-12-03T09:50:08.131Z,11.9
2018-12-03T10:00:55.601Z,12.0
2018-12-03T10:11:42.993Z,12.0
2018-12-03T10:22:32.031Z,12.1
2018-12-03T10:33:23.649Z,12.2
2018-12-03T10:44:10.826Z,12.3
2018-12-03T10:55:31.717Z,12.3
2018-12-03T11:05:46.715Z,12.4
2018-12-03T11:16:05.091Z,12.5
2018-12-03T11:27:52.671Z,12.7
2018-12-03T11:38:23.968Z,12.7
2018-12-03T11:48:56.335Z,12.9
2018-12-03T11:59:57.085Z,13.2
2018-12-03T12:10:14.529Z,13.2
2018-12-03T12:20:28.665Z,13.4
2018-12-03T12:31:16.408Z,13.5
2018-12-03T12:41:45.165Z,13.6
2018-12-03T12:52:19.279Z,13.6
2018-12-03T13:02:33.889Z,13.6
2018-12-03T13:12:47.938Z,13.6
2018-12-03T13:23:02.979Z,13.5
2018-12-03T13:33:17.464Z,13.5
2018-12-03T13:44:03.639Z,13.2
2018-12-03T13:55:17.020Z,13.1
2018-12-03T14:06:19.963Z,13.0
2018-12-03T14:17:05.048Z,12.8
2018-12-03T14:27:55.154Z,12.7
2018-12-03T14:38:52.288Z,12.6
2018-12-03T14:49:33.380Z,12.6
2018-12-03T15:00:29.311Z,12.3
2018-12-03T15:11:14.359Z,12.1
2018-12-03T15:22:12.870Z,12.0
2018-12-03T15:32:35.722Z,12.1
2018-12-03T15:43:00.586Z,11.9
2018-12-03T15:54:01.078Z,11.7
2018-12-03T16:04:54.219Z,11.6
2018-12-03T16:15:09.111Z,11.6
2018-12-03T16:25:59.075Z,11.4
2018-12-03T16:36:44.031Z,11.3
2018-12-03T16:47:02.806Z,11.3
2018-12-03T16:57:28.355Z,11.3
2018-12-03T17:08:02.411Z,11.2
2018-12-03T17:18:33.000Z,11.2
2018-12-03T17:28:52.354Z,11.1
2018-12-03T17:40:03.530Z,11.1
2018-12-03T17:50:42.693Z,11.0
2018-12-03T18:01:32.374Z,11.0
2018-12-03T18:13:15.181Z,11.1
2018-12-03T18:24:19.000Z,11.1
2018-12-03T18:35:07.196Z,11.1
2018-12-03T18:46:04.913Z,11.2
2018-12-03T18:57:31.523Z,11.2
2018-12-03T19:07:52.796Z,11.2
2018-12-03T19:18:16.232Z,11.2
2018-12-03T19:28:29.986Z,11.2
2018-12-03T19:41:30.570Z,11.2
2018-12-03T19:52:37.588Z,11.2
2018-12-03T20:04:42.226Z,11.2
2018-12-03T20:15:44.929Z,11.2
2018-12-03T20:34:08.566Z,11.5
2018-12-03T20:52:04.158Z,11.6
2018-12-03T21:22:44.687Z,11.5
2018-12-03T21:32:57.926Z,11.1
2018-12-03T21:43:12.245Z,10.9
2018-12-03T21:53:27.455Z,10.8
2018-12-03T22:03:41.320Z,10.7
2018-12-03T22:14:28.168Z,10.4
2018-12-03T22:24:41.608Z,10.4
2018-12-03T22:34:54.707Z,10.2
2018-12-03T22:45:05.872Z,10.0
2018-12-03T22:55:19.225Z,9.8
2018-12-03T23:05:32.315Z,9.6
2018-12-03T23:15:45.698Z,9.4
2018-12-03T23:25:59.910Z,9.2
2018-12-03T23:36:14.099Z,9.0
2018-12-03T23:46:28.133Z,8.9
2018-12-03T23:56:41.307Z,8.8
